Pioche, Nevada Weather observations

Data are for observation ending at time listed.
 Day   Time    Ave.   Ave.  Ave.  Vector   Max.   Stn.    Total    Solar   Ave.  
  of    of     Air    Rel.  Wind   Wind    Wind   Baro.  Precip.   Rad.    Soil  
Year   Day     Temp.  Hum.  Speed  Dir.    Gust   Pres.                    Temp. 
2015   (PST)    F      %     mph   deg.    mph     mb.     in.     W/m2     F   
------------------------------------------------------------------------------
 143   19:40   49.6    83    1.8   246      4.7   817.0    0.00       0    58.2
 143   19:50   49.5    83    3.2   273      6.4   817.1    0.00       0    58.1
 143   20:00   49.6    81    4.1   275      7.0   817.2    0.00       0    58.1
 143   20:10   49.7    80    4.6   273      7.6   817.3    0.00       0    58.1
 143   20:20   49.3    83    2.7   228      5.6   817.3    0.00       0    58.1
 143   20:30   49.2    84    2.3   204      4.2   817.3    0.00       0    58.0
 143   20:40   49.2    84    1.3   241      3.9   817.3    0.00       0    58.0
 143   20:50   49.6    83    1.9   292      3.1   817.4    0.00       0    58.0
 143   21:00   49.4    86    1.3   317      2.9   817.5    0.00       0    58.0
 143   21:10   49.0    87    2.7   305      5.3   817.6    0.00       0    57.9
 143   21:20   48.5    86    1.7   306      3.8   817.6    0.00       0    57.9
 143   21:30   48.0    87    1.2   281      1.8   817.6    0.00       0    57.8
 143   21:40   46.9    88    1.3   218      2.7   817.6    0.00       0    57.8
 143   21:50   46.2    89    2.7   212      4.8   817.6    0.00       0    57.8
 143   22:00   46.5    90    1.9   249      4.4   817.6    0.00       0    57.8
 143   22:10   47.0    89    2.2   272      3.4   817.6    0.00       0    57.7
 143   22:20   47.2    88    2.6   276      4.0   817.6    0.00       0    57.7
 143   22:30   47.3    88    2.3   263      4.7   817.7    0.00       0    57.7
 143   22:40   47.5    88    1.7   254      4.0   817.6    0.00       0    57.6
 143   22:50   47.9    88    1.6   254      3.3   817.6    0.00       0    57.6
 143   23:00   47.9    87    1.5   268      2.9   817.6    0.00       0    57.5
 143   23:10   47.8    87    1.6   272      4.7   817.6    0.00       0    57.5
 143   23:20   47.9    87    1.9   273      3.5   817.6    0.00       0    57.5
 143   23:30   47.6    86    1.4   273      2.7   817.6    0.00       0    57.4
 143   23:40   46.6    88    1.4   169      2.9   817.4    0.00       0    57.4
 143   23:50   46.3    89    1.8   156      2.5   817.3    0.00       0    57.4
 144    0:00   46.2    89    0.7   187      2.0   817.3    0.00       0    57.3
 144    0:10   45.9    89    1.2   169      2.4   817.3    0.00       0    57.3
 144    0:20   45.9    90    0.8   174      2.0   817.3    0.00       0    57.2
 144    0:30   45.5    90    0.7   164      1.8   817.3    0.00       0    57.2
 144    0:40   45.4    90    0.6   168      1.5   817.2    0.00       0    57.1
 144    0:50   44.8    90    0.6   212      2.2   817.2    0.00       0    57.1
 144    1:00   44.4    90    0.5   221      1.9   817.2    0.00       0    57.1
 144    1:10   44.4    91    1.2   255      3.3   817.2    0.00       0    57.0
 144    1:20   45.1    92    3.0   270      4.3   817.2    0.00       0    57.0
 144    1:30   45.2    91    1.5   257      3.8   817.2    0.00       0    56.9
 144    1:40   45.7    91    1.6   268      3.1   817.2    0.00       0    56.9
 144    1:50   45.6    91    1.9   279      3.1   817.2    0.00       0    56.9
 144    2:00   45.1    90    2.0   262      3.4   817.1    0.00       0    56.8
 144    2:10   45.1    90    1.4   245      3.1   817.0    0.00       0    56.8
 144    2:20   46.2    88    2.9   272      5.0   817.0    0.00       0    56.7
 144    2:30   46.9    86    4.6   287      7.0   817.0    0.00       0    56.7
 144    2:40   46.8    85    4.2   279      6.6   817.0    0.00       0    56.6
 144    2:50   46.6    85    3.5   271      5.7   816.9    0.00       0    56.6
 144    3:00   46.8    85    4.2   270      8.4   816.9    0.00       0    56.6
 144    3:10   46.9    85    4.0   276      6.3   817.1    0.00       0    56.6
 144    3:20   46.8    85    3.5   276      5.8   817.1    0.00       0    56.5
 144    3:30   46.8    85    3.9   276      6.5   817.1    0.00       0    56.4
 144    3:40   46.8    85    3.5   275      6.5   817.0    0.00       0    56.4
 144    3:50   46.9    85    2.8   265      5.3   817.0    0.00       0    56.4
 144    4:00   47.1    84    2.2   266      3.9   816.9    0.00       0    56.3
 144    4:10   47.1    84    3.2   279      5.1   817.0    0.00       1    56.3
 144    4:20   47.2    83    2.8   277      4.4   817.0    0.00       4    56.2
 144    4:30   47.2    83    1.9   274      3.4   817.0    0.00       4    56.2
 144    4:40   47.0    83    1.8   275      3.2   817.1    0.00       9    56.2
 144    4:50   46.8    83    0.0   260      0.4   817.1    0.00      18    56.2
 144    5:00   46.8    83    0.0   176      0.6   817.2    0.00      28    56.1
 144    5:10   47.2    84    0.0   176      0.7   817.3    0.00      39    56.1
 144    5:20   47.4    83    0.2    82      1.6   817.4    0.00      44    56.0
 144    5:30   47.1    85    1.0   317      2.6   817.5    0.00      56    56.0
 144    5:40   46.8    86    2.0   311      2.9   817.6    0.00      72    56.0
 144    5:50   46.9    85    1.9   309      3.4   817.6    0.00      92    56.0
 144    6:00   47.2    84    1.5   293      2.6   817.6    0.00      91    55.9
 144    6:10   47.6    84    1.3   279      2.4   817.7    0.00      90    55.9
 144    6:20   48.1    83    2.7   277      4.8   817.7    0.00     107    55.9
 144    6:30   48.9    80    4.0   282      6.6   817.7    0.00     125    55.8
 144    6:40   49.5    78    4.7   294      8.3   817.7    0.00     135    55.8
 144    6:50   49.7    79    4.2   308      6.3   817.7    0.00     140    55.8
 144    7:00   49.7    79    4.1   307      6.8   817.8    0.00     133    55.8
 144    7:10   49.6    81    3.0   330      4.9   817.9    0.00     134    55.8
 144    7:20   49.5    82    2.8   311      4.1   817.9    0.00     145    55.8
 144    7:30   49.9    81    4.3   304      7.4   817.9    0.00     173    55.8
 144    7:40   50.3    77    5.9   292      9.1   818.0    0.00     196    55.8
 144    7:50   50.7    76    4.4   295      7.9   818.1    0.00     223    55.7
 144    8:00   51.3    73    5.0   293      9.1   818.1    0.00     241    55.7
 144    8:10   51.5    73    4.6   314      7.7   818.1    0.00     259    55.7
 144    8:20   52.1    71    5.0   314     10.7   818.1    0.00     324    55.7
 144    8:30   53.1    66    7.1   307     11.3   818.0    0.00     466    55.7
 144    8:40   54.6    60    7.5   312     11.8   818.0    0.00     553    55.8
 144    8:50   55.2    58    8.8   306     14.2   818.1    0.00     616    55.8
 144    9:00   56.1    58    8.9   308     15.9   818.1    0.00     946    55.8
 144    9:10   57.4    56    5.6   307     10.4   818.0    0.00     988    55.9
 144    9:20   58.1    54    7.3   309     11.8   817.9    0.00     961    55.9
 144    9:30   58.3    54    7.8   310     14.2   818.0    0.00     827    55.9
 144    9:40   58.2    54    8.1   322     14.2   818.0    0.00     756    55.9
 144    9:50   58.0    52    8.3   316     15.1   817.9    0.00     523    56.0
 144   10:00   58.0    53    6.4   322     12.1   817.9    0.00     542    56.0
 144   10:10   58.7    49    6.7   309     15.1   817.9    0.00     554    56.0
 144   10:20   58.9    47    7.2   313     12.7   817.8    0.00     872    56.1
 144   10:30   60.8    44    7.4   316     12.7   817.7    0.00    1063    56.1
 144   10:40   61.3    43    4.8   320      9.5   817.7    0.00    1148    56.2
 144   10:50   62.3    42    3.7   332     10.9   817.5    0.00     728    56.3
 144   11:00   61.6    43    5.1   328     12.1   817.5    0.00     747    56.3
 144   11:10   62.7    40    5.1   328     14.6   817.4    0.00    1210    56.4
 144   11:20   63.7    39    4.2   320     12.1   817.4    0.00     974    56.5
 144   11:30   62.8    39    5.6   302     13.3   817.4    0.00     679    56.6
 144   11:40   62.6    38    2.8   260      8.2   817.3    0.00     797    56.7
 144   11:50   65.0    36    2.0   287      8.2   817.2    0.00     790    56.8
 144   12:00   64.5    39    3.9   270      8.1   817.0    0.00    1161    56.9
 144   12:10   63.5    35    3.9   309     14.0   817.0    0.00     227    57.1
 144   12:20   59.7    46    9.8   271     19.7   817.0    0.00     369    57.3
 144   12:30   62.4    43    6.1   245     11.7   816.9    0.00    1203    57.4
 144   12:40   63.8    38    7.0   268     14.4   816.8    0.00    1014    57.5
 144   12:50   61.9    41    3.9   246     10.0   817.0    0.00     229    57.7
 144   13:00   60.1    46    8.2   271     15.7   817.0    0.00      89    57.8
 144   13:10   57.9    48   10.5   282     19.1   817.2    0.00      65    58.0
 144   13:20   56.3    53    9.3   288     14.7   817.4    0.00      55    58.1
 144   13:30   56.1    54    6.6   284     12.0   817.6    0.00      62    58.3
 144   13:40   55.3    61    6.2   303     10.5   817.7    0.00      94    58.4
 144   13:50   54.4    66    3.5   320      7.9   817.7    0.00     165    58.5
 144   14:00   54.7    64    1.5   103      4.2   817.5    0.01     276    58.6
 144   14:10   54.4    69    3.3    73      5.3   817.3    0.00     357    58.7
 144   14:20   56.8    61    0.8    88      3.2   817.2    0.00     625    58.7
 144   14:30   56.6    61    3.4    68      7.3   817.0    0.00     350    58.8
 144   14:40   55.8    65    3.4    79      6.1   817.0    0.00     357    58.8
 144   14:50   56.5    62    3.3    74      6.6   816.9    0.00     651    58.9
 144   15:00   58.4    58    6.0    85      9.7   816.8    0.00     821    58.9
 144   15:10   58.9    56    5.8    77      9.9   816.8    0.00     662    58.9
 144   15:20   59.0    57    6.3    72     11.6   816.9    0.00     537    59.0
 144   15:30   58.7    57    7.5    73     13.4   816.8    0.00     625    59.0
 144   15:40   59.1    55    7.9    76     14.0   816.7    0.00     636    59.1
 144   15:50   58.5    56    7.6    74     13.8   816.6    0.00     405    59.2
 144   16:00   58.3    57    5.6    77     13.0   816.4    0.00     506    59.3
 144   16:10   58.5    57    6.4    69     12.4   816.4    0.00     492    59.4
 144   16:20   58.0    56    6.7    75     10.2   816.4    0.00     178    59.5
 144   16:30   57.4    56    5.3    77      8.3   816.4    0.00     100    59.5
 144   16:40   57.3    59    4.5    92      7.5   816.4    0.00     133    59.6
 144   16:50   58.5    55    5.7    92      8.8   816.3    0.00     388    59.7
 144   17:00   58.1    55    6.7    95      9.3   816.3    0.00     145    59.8
 144   17:10   57.8    56    5.5   107      7.5   816.3    0.00     110    59.9
 144   17:20   57.8    55    4.6   110      6.7   816.3    0.00     101    60.0
 144   17:30   58.2    54    3.8   110      6.1   816.4    0.00      72    60.0
 144   17:40   58.4    54    5.1   133      7.6   816.3    0.00      90    60.1
 144   17:50   58.3    53    4.4   116      8.2   816.3    0.00      76    60.1
 144   18:00   58.8    52    4.5   120      6.9   816.4    0.00     134    60.1
 144   18:10   58.6    53    4.6   107      8.0   816.3    0.00      87    60.2
 144   18:20   58.2    53    4.0    98      7.2   816.4    0.00      18    60.2
 144   18:30   57.8    56    4.1    90      6.2   816.4    0.00       7    60.2
 144   18:40   57.2    58    5.9   114      9.1   816.3    0.00       4    60.3
 144   18:50   56.9    58    7.3   138     12.9   816.4    0.00       2    60.3
 144   19:00   56.4    60    9.9   141     16.4   816.4    0.00       0    60.3
 144   19:10   55.2    61   11.3   282     22.6   817.1    0.00       0    60.3
 144   19:20   50.8    73   13.6   306     23.2   817.7    0.01       0    60.3
 144   19:30   47.6    85    8.7   307     14.2   818.0    0.02       0    60.3

Return to Pioche, Nevada graphs page.


Western Regional Climate Center,wrcc@dri.edu